sensor_id;sensor_type;location;lat;lon;timestamp;temperature;humidity
66096;SHT31;53861;53.422;14.530;2023-11-21T00:00:18;5.67;95.81
66096;SHT31;53861;53.422;14.530;2023-11-21T00:02:52;5.43;96.21
66096;SHT31;53861;53.422;14.530;2023-11-21T00:05:23;5.53;96.22
66096;SHT31;53861;53.422;14.530;2023-11-21T00:07:55;5.50;96.02
66096;SHT31;53861;53.422;14.530;2023-11-21T00:10:23;5.32;95.27
66096;SHT31;53861;53.422;14.530;2023-11-21T00:12:53;5.39;95.33
66096;SHT31;53861;53.422;14.530;2023-11-21T00:15:21;5.50;96.04
66096;SHT31;53861;53.422;14.530;2023-11-21T00:17:49;5.42;95.67
66096;SHT31;53861;53.422;14.530;2023-11-21T00:20:16;5.33;96.29
66096;SHT31;53861;53.422;14.530;2023-11-21T00:22:46;5.47;96.79
66096;SHT31;53861;53.422;14.530;2023-11-21T00:25:15;5.47;96.30
66096;SHT31;53861;53.422;14.530;2023-11-21T00:27:43;5.33;95.08
66096;SHT31;53861;53.422;14.530;2023-11-21T00:30:12;5.32;95.01
66096;SHT31;53861;53.422;14.530;2023-11-21T00:32:39;5.05;95.18
66096;SHT31;53861;53.422;14.530;2023-11-21T00:35:08;4.96;96.01
66096;SHT31;53861;53.422;14.530;2023-11-21T00:37:36;4.88;96.14
66096;SHT31;53861;53.422;14.530;2023-11-21T00:40:07;4.85;96.38
66096;SHT31;53861;53.422;14.530;2023-11-21T00:42:36;4.99;96.30
66096;SHT31;53861;53.422;14.530;2023-11-21T00:45:10;5.05;98.12
66096;SHT31;53861;53.422;14.530;2023-11-21T00:47:40;5.05;96.79
66096;SHT31;53861;53.422;14.530;2023-11-21T00:50:08;5.05;97.34
66096;SHT31;53861;53.422;14.530;2023-11-21T00:53:11;5.12;97.67
66096;SHT31;53861;53.422;14.530;2023-11-21T00:55:39;5.15;97.45
66096;SHT31;53861;53.422;14.530;2023-11-21T00:58:08;4.95;96.24
66096;SHT31;53861;53.422;14.530;2023-11-21T01:00:36;4.92;96.95
66096;SHT31;53861;53.422;14.530;2023-11-21T01:03:05;4.89;95.87
66096;SHT31;53861;53.422;14.530;2023-11-21T01:05:38;4.88;97.06
66096;SHT31;53861;53.422;14.530;2023-11-21T01:08:10;4.78;96.18
66096;SHT31;53861;53.422;14.530;2023-11-21T01:10:38;4.82;95.64
66096;SHT31;53861;53.422;14.530;2023-11-21T01:13:05;4.86;96.48
66096;SHT31;53861;53.422;14.530;2023-11-21T01:16:09;4.71;96.22
66096;SHT31;53861;53.422;14.530;2023-11-21T01:18:40;4.69;95.63
66096;SHT31;53861;53.422;14.530;2023-11-21T01:21:09;4.72;95.31
66096;SHT31;53861;53.422;14.530;2023-11-21T01:23:36;4.81;96.04
66096;SHT31;53861;53.422;14.530;2023-11-21T01:26:04;4.82;96.56
66096;SHT31;53861;53.422;14.530;2023-11-21T01:28:35;4.91;96.79
66096;SHT31;53861;53.422;14.530;2023-11-21T01:31:09;4.84;97.46
66096;SHT31;53861;53.422;14.530;2023-11-21T01:33:41;4.74;96.54
66096;SHT31;53861;53.422;14.530;2023-11-21T01:36:09;4.81;97.34
66096;SHT31;53861;53.422;14.530;2023-11-21T01:38:37;4.84;97.51
66096;SHT31;53861;53.422;14.530;2023-11-21T01:41:05;4.76;96.67
66096;SHT31;53861;53.422;14.530;2023-11-21T01:43:45;4.78;97.35
66096;SHT31;53861;53.422;14.530;2023-11-21T01:46:16;4.76;98.05
66096;SHT31;53861;53.422;14.530;2023-11-21T01:48:57;4.74;97.36
66096;SHT31;53861;53.422;14.530;2023-11-21T01:51:26;4.69;97.77
66096;SHT31;53861;53.422;14.530;2023-11-21T01:53:57;4.68;96.62
66096;SHT31;53861;53.422;14.530;2023-11-21T01:56:28;4.57;97.08
66096;SHT31;53861;53.422;14.530;2023-11-21T01:58:59;4.48;97.49
66096;SHT31;53861;53.422;14.530;2023-11-21T02:01:38;4.54;96.47
66096;SHT31;53861;53.422;14.530;2023-11-21T02:04:25;4.44;95.94
66096;SHT31;53861;53.422;14.530;2023-11-21T02:06:56;4.58;97.79
66096;SHT31;53861;53.422;14.530;2023-11-21T02:09:28;4.57;97.98
66096;SHT31;53861;53.422;14.530;2023-11-21T02:11:57;4.57;96.83
66096;SHT31;53861;53.422;14.530;2023-11-21T02:14:28;4.65;98.52
66096;SHT31;53861;53.422;14.530;2023-11-21T02:17:02;4.69;98.26
66096;SHT31;53861;53.422;14.530;2023-11-21T02:19:44;4.45;96.10
66096;SHT31;53861;53.422;14.530;2023-11-21T02:22:18;4.58;96.78
66096;SHT31;53861;53.422;14.530;2023-11-21T02:24:58;4.48;96.93
66096;SHT31;53861;53.422;14.530;2023-11-21T02:27:28;4.44;97.09
66096;SHT31;53861;53.422;14.530;2023-11-21T02:29:57;4.54;97.13
66096;SHT31;53861;53.422;14.530;2023-11-21T02:32:32;4.55;97.82
66096;SHT31;53861;53.422;14.530;2023-11-21T02:35:00;4.72;98.09
66096;SHT31;53861;53.422;14.530;2023-11-21T02:37:35;4.61;97.55
66096;SHT31;53861;53.422;14.530;2023-11-21T02:40:24;4.61;97.59
66096;SHT31;53861;53.422;14.530;2023-11-21T02:43:16;4.68;97.97
66096;SHT31;53861;53.422;14.530;2023-11-21T02:46:00;4.51;97.63
66096;SHT31;53861;53.422;14.530;2023-11-21T02:48:35;4.50;96.58
66096;SHT31;53861;53.422;14.530;2023-11-21T02:51:07;4.65;97.57
66096;SHT31;53861;53.422;14.530;2023-11-21T02:53:45;4.58;96.64
66096;SHT31;53861;53.422;14.530;2023-11-21T02:56:28;4.43;96.92
66096;SHT31;53861;53.422;14.530;2023-11-21T02:59:02;4.57;97.21
66096;SHT31;53861;53.422;14.530;2023-11-21T03:01:34;4.53;96.51
66096;SHT31;53861;53.422;14.530;2023-11-21T03:04:02;4.55;97.30
66096;SHT31;53861;53.422;14.530;2023-11-21T03:06:33;4.62;96.72
66096;SHT31;53861;53.422;14.530;2023-11-21T03:09:05;4.43;96.36
66096;SHT31;53861;53.422;14.530;2023-11-21T03:11:38;4.53;96.95
66096;SHT31;53861;53.422;14.530;2023-11-21T03:14:36;4.54;97.03
66096;SHT31;53861;53.422;14.530;2023-11-21T03:17:04;4.57;96.75
66096;SHT31;53861;53.422;14.530;2023-11-21T03:19:37;4.55;96.79
66096;SHT31;53861;53.422;14.530;2023-11-21T03:22:05;4.44;97.20
66096;SHT31;53861;53.422;14.530;2023-11-21T03:24:34;4.30;95.48
66096;SHT31;53861;53.422;14.530;2023-11-21T03:27:04;4.50;97.00
66096;SHT31;53861;53.422;14.530;2023-11-21T03:29:31;4.55;96.91
66096;SHT31;53861;53.422;14.530;2023-11-21T03:31:59;4.41;95.53
66096;SHT31;53861;53.422;14.530;2023-11-21T03:34:27;4.44;96.28
66096;SHT31;53861;53.422;14.530;2023-11-21T03:36:55;4.48;97.47
66096;SHT31;53861;53.422;14.530;2023-11-21T03:39:25;4.54;96.64
66096;SHT31;53861;53.422;14.530;2023-11-21T03:41:58;4.48;96.93
66096;SHT31;53861;53.422;14.530;2023-11-21T03:44:32;4.50;96.00
66096;SHT31;53861;53.422;14.530;2023-11-21T03:47:10;4.17;96.45
66096;SHT31;53861;53.422;14.530;2023-11-21T03:49:42;4.24;97.35
66096;SHT31;53861;53.422;14.530;2023-11-21T03:52:14;4.34;97.51
66096;SHT31;53861;53.422;14.530;2023-11-21T03:54:47;4.30;97.07
66096;SHT31;53861;53.422;14.530;2023-11-21T03:57:16;4.24;96.15
66096;SHT31;53861;53.422;14.530;2023-11-21T03:59:48;4.24;98.17
66096;SHT31;53861;53.422;14.530;2023-11-21T04:02:18;4.25;98.01
66096;SHT31;53861;53.422;14.530;2023-11-21T04:04:54;4.38;98.16
66096;SHT31;53861;53.422;14.530;2023-11-21T04:07:24;4.09;96.51
66096;SHT31;53861;53.422;14.530;2023-11-21T04:09:57;4.07;96.70
66096;SHT31;53861;53.422;14.530;2023-11-21T04:12:28;4.14;97.70
66096;SHT31;53861;53.422;14.530;2023-11-21T04:14:57;4.27;97.38
66096;SHT31;53861;53.422;14.530;2023-11-21T04:17:27;4.20;97.43
66096;SHT31;53861;53.422;14.530;2023-11-21T04:19:59;4.23;97.25
66096;SHT31;53861;53.422;14.530;2023-11-21T04:22:28;4.30;97.56
66096;SHT31;53861;53.422;14.530;2023-11-21T04:24:55;4.14;96.62
66096;SHT31;53861;53.422;14.530;2023-11-21T04:27:25;4.23;96.65
66096;SHT31;53861;53.422;14.530;2023-11-21T04:29:57;4.38;97.59
66096;SHT31;53861;53.422;14.530;2023-11-21T04:32:30;4.29;96.76
66096;SHT31;53861;53.422;14.530;2023-11-21T04:35:00;4.25;96.84
66096;SHT31;53861;53.422;14.530;2023-11-21T04:37:32;4.33;97.81
66096;SHT31;53861;53.422;14.530;2023-11-21T04:40:04;4.16;97.15
66096;SHT31;53861;53.422;14.530;2023-11-21T04:42:36;4.02;96.20
66096;SHT31;53861;53.422;14.530;2023-11-21T04:45:07;4.10;97.32
66096;SHT31;53861;53.422;14.530;2023-11-21T04:47:44;4.07;98.01
66096;SHT31;53861;53.422;14.530;2023-11-21T04:50:13;4.02;97.14
66096;SHT31;53861;53.422;14.530;2023-11-21T04:52:41;4.02;97.21
66096;SHT31;53861;53.422;14.530;2023-11-21T04:55:08;4.02;97.42
66096;SHT31;53861;53.422;14.530;2023-11-21T04:57:37;3.87;97.68
66096;SHT31;53861;53.422;14.530;2023-11-21T05:00:09;3.89;98.05
66096;SHT31;53861;53.422;14.530;2023-11-21T05:02:37;4.02;98.81
66096;SHT31;53861;53.422;14.530;2023-11-21T05:05:05;4.00;98.47
66096;SHT31;53861;53.422;14.530;2023-11-21T05:07:38;3.96;98.13
66096;SHT31;53861;53.422;14.530;2023-11-21T05:10:34;3.97;98.25
66096;SHT31;53861;53.422;14.530;2023-11-21T05:13:05;3.96;98.48
66096;SHT31;53861;53.422;14.530;2023-11-21T05:15:53;3.94;97.78
66096;SHT31;53861;53.422;14.530;2023-11-21T05:18:24;3.99;98.52
66096;SHT31;53861;53.422;14.530;2023-11-21T05:21:01;4.02;98.85
66096;SHT31;53861;53.422;14.530;2023-11-21T05:23:35;4.02;98.84
66096;SHT31;53861;53.422;14.530;2023-11-21T05:26:03;3.90;98.52
66096;SHT31;53861;53.422;14.530;2023-11-21T05:28:31;4.02;98.60
66096;SHT31;53861;53.422;14.530;2023-11-21T05:31:01;4.00;98.68
66096;SHT31;53861;53.422;14.530;2023-11-21T05:33:35;4.07;99.13
66096;SHT31;53861;53.422;14.530;2023-11-21T05:36:07;4.14;99.79
66096;SHT31;53861;53.422;14.530;2023-11-21T05:38:41;4.09;99.50
66096;SHT31;53861;53.422;14.530;2023-11-21T05:41:12;4.06;99.48
66096;SHT31;53861;53.422;14.530;2023-11-21T05:43:51;4.00;99.25
66096;SHT31;53861;53.422;14.530;2023-11-21T05:46:23;4.07;98.71
66096;SHT31;53861;53.422;14.530;2023-11-21T05:48:50;4.00;98.61
66096;SHT31;53861;53.422;14.530;2023-11-21T05:51:20;4.09;99.68
66096;SHT31;53861;53.422;14.530;2023-11-21T05:53:58;4.18;99.84
66096;SHT31;53861;53.422;14.530;2023-11-21T05:56:25;4.11;98.49
66096;SHT31;53861;53.422;14.530;2023-11-21T05:58:58;4.07;98.96
66096;SHT31;53861;53.422;14.530;2023-11-21T06:01:31;4.13;99.43
66096;SHT31;53861;53.422;14.530;2023-11-21T06:04:00;3.99;98.80
66096;SHT31;53861;53.422;14.530;2023-11-21T06:06:30;3.99;99.31
66096;SHT31;53861;53.422;14.530;2023-11-21T06:09:00;3.78;98.37
66096;SHT31;53861;53.422;14.530;2023-11-21T06:11:29;3.71;97.97
66096;SHT31;53861;53.422;14.530;2023-11-21T06:13:57;3.79;98.68
66096;SHT31;53861;53.422;14.530;2023-11-21T06:16:24;3.90;99.41
66096;SHT31;53861;53.422;14.530;2023-11-21T06:19:01;4.09;99.99
66096;SHT31;53861;53.422;14.530;2023-11-21T06:21:35;4.00;99.20
66096;SHT31;53861;53.422;14.530;2023-11-21T06:24:09;4.06;99.99
66096;SHT31;53861;53.422;14.530;2023-11-21T06:26:37;3.89;98.63
66096;SHT31;53861;53.422;14.530;2023-11-21T06:29:04;3.90;99.09
66096;SHT31;53861;53.422;14.530;2023-11-21T06:31:33;3.86;98.77
66096;SHT31;53861;53.422;14.530;2023-11-21T06:34:06;3.89;99.20
66096;SHT31;53861;53.422;14.530;2023-11-21T06:36:39;3.78;97.68
66096;SHT31;53861;53.422;14.530;2023-11-21T06:39:12;3.75;98.31
66096;SHT31;53861;53.422;14.530;2023-11-21T06:41:49;3.80;98.86
66096;SHT31;53861;53.422;14.530;2023-11-21T06:44:18;3.68;97.91
66096;SHT31;53861;53.422;14.530;2023-11-21T06:46:48;3.80;98.77
66096;SHT31;53861;53.422;14.530;2023-11-21T06:49:17;3.93;98.80
66096;SHT31;53861;53.422;14.530;2023-11-21T06:51:46;3.86;98.20
66096;SHT31;53861;53.422;14.530;2023-11-21T06:54:18;3.85;98.21
66096;SHT31;53861;53.422;14.530;2023-11-21T06:56:48;3.87;98.98
66096;SHT31;53861;53.422;14.530;2023-11-21T06:59:16;3.73;98.25
66096;SHT31;53861;53.422;14.530;2023-11-21T07:01:43;3.86;98.90
66096;SHT31;53861;53.422;14.530;2023-11-21T07:04:13;3.83;98.53
66096;SHT31;53861;53.422;14.530;2023-11-21T07:06:42;3.79;99.12
66096;SHT31;53861;53.422;14.530;2023-11-21T07:09:10;3.63;97.97
66096;SHT31;53861;53.422;14.530;2023-11-21T07:11:39;3.69;98.81
66096;SHT31;53861;53.422;14.530;2023-11-21T07:14:09;3.71;98.68
66096;SHT31;53861;53.422;14.530;2023-11-21T07:16:40;3.78;99.23
66096;SHT31;53861;53.422;14.530;2023-11-21T07:19:09;3.75;98.56
66096;SHT31;53861;53.422;14.530;2023-11-21T07:21:40;3.58;97.53
66096;SHT31;53861;53.422;14.530;2023-11-21T07:24:32;3.58;97.46
66096;SHT31;53861;53.422;14.530;2023-11-21T07:26:59;3.58;98.83
66096;SHT31;53861;53.422;14.530;2023-11-21T07:29:33;3.66;98.44
66096;SHT31;53861;53.422;14.530;2023-11-21T07:32:00;3.69;97.92
66096;SHT31;53861;53.422;14.530;2023-11-21T07:34:31;3.73;98.60
66096;SHT31;53861;53.422;14.530;2023-11-21T07:37:04;3.63;97.15
66096;SHT31;53861;53.422;14.530;2023-11-21T07:39:33;3.72;98.79
66096;SHT31;53861;53.422;14.530;2023-11-21T07:42:10;3.76;97.56
66096;SHT31;53861;53.422;14.530;2023-11-21T07:44:43;3.69;97.79
66096;SHT31;53861;53.422;14.530;2023-11-21T07:47:12;3.72;97.43
66096;SHT31;53861;53.422;14.530;2023-11-21T07:49:39;3.65;98.19
66096;SHT31;53861;53.422;14.530;2023-11-21T07:52:12;3.63;97.97
66096;SHT31;53861;53.422;14.530;2023-11-21T07:54:43;3.79;97.79
66096;SHT31;53861;53.422;14.530;2023-11-21T07:57:10;3.85;98.89
66096;SHT31;53861;53.422;14.530;2023-11-21T07:59:39;3.86;98.19
66096;SHT31;53861;53.422;14.530;2023-11-21T08:02:06;3.89;98.08
66096;SHT31;53861;53.422;14.530;2023-11-21T08:04:34;3.86;98.26
66096;SHT31;53861;53.422;14.530;2023-11-21T08:07:02;3.73;97.33
66096;SHT31;53861;53.422;14.530;2023-11-21T08:09:31;3.62;96.73
66096;SHT31;53861;53.422;14.530;2023-11-21T08:12:02;3.63;96.66
66096;SHT31;53861;53.422;14.530;2023-11-21T08:14:30;3.62;97.39
66096;SHT31;53861;53.422;14.530;2023-11-21T08:16:58;3.72;98.07
66096;SHT31;53861;53.422;14.530;2023-11-21T08:19:25;3.72;98.22
66096;SHT31;53861;53.422;14.530;2023-11-21T08:21:52;3.68;97.87
66096;SHT31;53861;53.422;14.530;2023-11-21T08:24:21;3.69;98.33
66096;SHT31;53861;53.422;14.530;2023-11-21T08:26:48;3.39;96.39
66096;SHT31;53861;53.422;14.530;2023-11-21T08:29:17;3.49;97.99
66096;SHT31;53861;53.422;14.530;2023-11-21T08:31:44;3.55;97.87
66096;SHT31;53861;53.422;14.530;2023-11-21T08:34:12;3.62;98.87
66096;SHT31;53861;53.422;14.530;2023-11-21T08:36:41;3.61;96.89
66096;SHT31;53861;53.422;14.530;2023-11-21T08:39:09;3.52;97.38
66096;SHT31;53861;53.422;14.530;2023-11-21T08:41:36;3.55;98.62
66096;SHT31;53861;53.422;14.530;2023-11-21T08:44:04;3.43;97.54
66096;SHT31;53861;53.422;14.530;2023-11-21T08:46:34;3.39;97.79
66096;SHT31;53861;53.422;14.530;2023-11-21T08:49:03;3.58;98.35
66096;SHT31;53861;53.422;14.530;2023-11-21T08:51:32;3.51;97.67
66096;SHT31;53861;53.422;14.530;2023-11-21T08:53:59;3.18;96.54
66096;SHT31;53861;53.422;14.530;2023-11-21T08:56:30;3.27;97.85
66096;SHT31;53861;53.422;14.530;2023-11-21T08:58:57;3.21;98.00
66096;SHT31;53861;53.422;14.530;2023-11-21T09:01:26;3.29;98.07
66096;SHT31;53861;53.422;14.530;2023-11-21T09:03:55;3.27;97.63
66096;SHT31;53861;53.422;14.530;2023-11-21T09:06:22;3.24;97.60
66096;SHT31;53861;53.422;14.530;2023-11-21T09:08:50;3.20;97.74
66096;SHT31;53861;53.422;14.530;2023-11-21T09:11:17;3.15;97.36
66096;SHT31;53861;53.422;14.530;2023-11-21T09:13:45;3.25;98.39
66096;SHT31;53861;53.422;14.530;2023-11-21T09:16:13;3.05;97.52
66096;SHT31;53861;53.422;14.530;2023-11-21T09:18:41;2.94;95.96
66096;SHT31;53861;53.422;14.530;2023-11-21T09:21:10;3.11;97.87
66096;SHT31;53861;53.422;14.530;2023-11-21T09:23:37;2.90;96.43
66096;SHT31;53861;53.422;14.530;2023-11-21T09:26:04;2.84;96.25
66096;SHT31;53861;53.422;14.530;2023-11-21T09:28:32;2.79;95.97
66096;SHT31;53861;53.422;14.530;2023-11-21T09:30:59;2.93;96.84
66096;SHT31;53861;53.422;14.530;2023-11-21T09:33:29;2.96;96.17
66096;SHT31;53861;53.422;14.530;2023-11-21T09:35:57;3.14;96.74
66096;SHT31;53861;53.422;14.530;2023-11-21T09:38:25;3.07;96.16
66096;SHT31;53861;53.422;14.530;2023-11-21T09:40:55;3.18;95.10
66096;SHT31;53861;53.422;14.530;2023-11-21T09:43:24;3.18;95.61
66096;SHT31;53861;53.422;14.530;2023-11-21T09:45:58;3.20;95.55
66096;SHT31;53861;53.422;14.530;2023-11-21T09:48:29;3.25;95.57
66096;SHT31;53861;53.422;14.530;2023-11-21T09:50:59;3.22;95.48
66096;SHT31;53861;53.422;14.530;2023-11-21T09:53:29;3.24;94.00
66096;SHT31;53861;53.422;14.530;2023-11-21T09:55:59;3.28;93.91
66096;SHT31;53861;53.422;14.530;2023-11-21T09:58:28;3.38;93.94
66096;SHT31;53861;53.422;14.530;2023-11-21T10:00:57;3.46;95.05
66096;SHT31;53861;53.422;14.530;2023-11-21T10:03:26;3.43;92.55
66096;SHT31;53861;53.422;14.530;2023-11-21T10:05:56;3.27;92.82
66096;SHT31;53861;53.422;14.530;2023-11-21T10:08:25;3.42;92.12
66096;SHT31;53861;53.422;14.530;2023-11-21T10:10:55;3.34;92.99
66096;SHT31;53861;53.422;14.530;2023-11-21T10:13:26;3.28;91.74
66096;SHT31;53861;53.422;14.530;2023-11-21T10:15:56;3.35;94.04
66096;SHT31;53861;53.422;14.530;2023-11-21T10:18:24;3.32;92.03
66096;SHT31;53861;53.422;14.530;2023-11-21T10:20:53;3.41;91.57
66096;SHT31;53861;53.422;14.530;2023-11-21T10:23:21;3.55;93.44
66096;SHT31;53861;53.422;14.530;2023-11-21T10:25:49;3.63;92.14
66096;SHT31;53861;53.422;14.530;2023-11-21T10:28:19;3.58;89.80
66096;SHT31;53861;53.422;14.530;2023-11-21T10:30:46;3.86;89.86
66096;SHT31;53861;53.422;14.530;2023-11-21T10:33:13;3.72;89.59
66096;SHT31;53861;53.422;14.530;2023-11-21T10:35:44;3.72;89.05
66096;SHT31;53861;53.422;14.530;2023-11-21T10:38:17;3.87;90.56
66096;SHT31;53861;53.422;14.530;2023-11-21T10:40:45;3.63;87.96
66096;SHT31;53861;53.422;14.530;2023-11-21T10:43:13;3.76;90.05
66096;SHT31;53861;53.422;14.530;2023-11-21T10:45:43;3.54;88.83
66096;SHT31;53861;53.422;14.530;2023-11-21T10:48:12;3.73;88.30
66096;SHT31;53861;53.422;14.530;2023-11-21T10:50:42;3.68;90.37
66096;SHT31;53861;53.422;14.530;2023-11-21T10:53:09;3.49;86.24
66096;SHT31;53861;53.422;14.530;2023-11-21T10:55:37;3.68;87.26
66096;SHT31;53861;53.422;14.530;2023-11-21T10:58:05;3.82;86.19
66096;SHT31;53861;53.422;14.530;2023-11-21T11:00:33;3.93;88.63
66096;SHT31;53861;53.422;14.530;2023-11-21T11:03:02;3.75;86.91
66096;SHT31;53861;53.422;14.530;2023-11-21T11:05:30;3.78;86.26
66096;SHT31;53861;53.422;14.530;2023-11-21T11:07:59;3.66;86.13
66096;SHT31;53861;53.422;14.530;2023-11-21T11:10:27;3.51;84.89
66096;SHT31;53861;53.422;14.530;2023-11-21T11:12:56;3.49;87.92
66096;SHT31;53861;53.422;14.530;2023-11-21T11:15:35;3.22;86.52
66096;SHT31;53861;53.422;14.530;2023-11-21T11:18:03;3.41;89.35
66096;SHT31;53861;53.422;14.530;2023-11-21T11:20:37;3.24;86.82
66096;SHT31;53861;53.422;14.530;2023-11-21T11:23:16;3.45;89.11
66096;SHT31;53861;53.422;14.530;2023-11-21T11:26:01;3.48;88.31
66096;SHT31;53861;53.422;14.530;2023-11-21T11:28:42;3.41;87.79
66096;SHT31;53861;53.422;14.530;2023-11-21T11:31:18;3.61;89.65
66096;SHT31;53861;53.422;14.530;2023-11-21T11:33:57;3.62;88.98
66096;SHT31;53861;53.422;14.530;2023-11-21T11:36:44;3.63;86.84
66096;SHT31;53861;53.422;14.530;2023-11-21T11:39:27;3.62;87.85
66096;SHT31;53861;53.422;14.530;2023-11-21T11:42:12;3.65;89.19
66096;SHT31;53861;53.422;14.530;2023-11-21T11:44:48;3.61;88.11
66096;SHT31;53861;53.422;14.530;2023-11-21T11:47:20;3.52;86.36
66096;SHT31;53861;53.422;14.530;2023-11-21T11:50:01;3.45;85.82
66096;SHT31;53861;53.422;14.530;2023-11-21T11:52:40;3.65;85.63
66096;SHT31;53861;53.422;14.530;2023-11-21T11:55:13;3.92;87.13
66096;SHT31;53861;53.422;14.530;2023-11-21T11:57:46;3.87;86.16
66096;SHT31;53861;53.422;14.530;2023-11-21T12:00:21;3.90;85.55
66096;SHT31;53861;53.422;14.530;2023-11-21T12:02:52;3.93;87.34
66096;SHT31;53861;53.422;14.530;2023-11-21T12:05:27;3.92;85.90
66096;SHT31;53861;53.422;14.530;2023-11-21T12:08:12;3.71;85.54
66096;SHT31;53861;53.422;14.530;2023-11-21T12:10:47;3.83;83.78
66096;SHT31;53861;53.422;14.530;2023-11-21T12:13:23;3.56;81.55
66096;SHT31;53861;53.422;14.530;2023-11-21T12:15:51;3.48;81.42
66096;SHT31;53861;53.422;14.530;2023-11-21T12:18:18;3.69;84.82
66096;SHT31;53861;53.422;14.530;2023-11-21T12:20:47;3.80;85.82
66096;SHT31;53861;53.422;14.530;2023-11-21T12:23:16;4.10;85.27
66096;SHT31;53861;53.422;14.530;2023-11-21T12:25:43;4.33;80.75
66096;SHT31;53861;53.422;14.530;2023-11-21T12:28:12;4.91;80.60
66096;SHT31;53861;53.422;14.530;2023-11-21T12:30:43;6.36;79.00
66096;SHT31;53861;53.422;14.530;2023-11-21T12:33:10;5.86;80.40
66096;SHT31;53861;53.422;14.530;2023-11-21T12:35:43;5.44;80.83
66096;SHT31;53861;53.422;14.530;2023-11-21T12:38:14;4.99;82.22
66096;SHT31;53861;53.422;14.530;2023-11-21T12:40:44;4.40;80.69
66096;SHT31;53861;53.422;14.530;2023-11-21T12:43:14;4.50;82.99
66096;SHT31;53861;53.422;14.530;2023-11-21T12:45:43;4.45;81.74
66096;SHT31;53861;53.422;14.530;2023-11-21T12:48:16;4.16;83.38
66096;SHT31;53861;53.422;14.530;2023-11-21T12:50:54;4.03;82.56
66096;SHT31;53861;53.422;14.530;2023-11-21T12:53:23;3.99;80.88
66096;SHT31;53861;53.422;14.530;2023-11-21T12:55:50;4.02;82.34
66096;SHT31;53861;53.422;14.530;2023-11-21T12:58:21;4.36;83.29
66096;SHT31;53861;53.422;14.530;2023-11-21T13:00:51;4.61;81.04
66096;SHT31;53861;53.422;14.530;2023-11-21T13:03:19;4.38;81.55
66096;SHT31;53861;53.422;14.530;2023-11-21T13:05:55;4.17;80.16
66096;SHT31;53861;53.422;14.530;2023-11-21T13:08:26;4.20;81.93
66096;SHT31;53861;53.422;14.530;2023-11-21T13:10:59;4.34;84.53
66096;SHT31;53861;53.422;14.530;2023-11-21T13:13:31;4.30;84.21
66096;SHT31;53861;53.422;14.530;2023-11-21T13:16:05;4.21;83.11
66096;SHT31;53861;53.422;14.530;2023-11-21T13:18:39;4.11;81.04
66096;SHT31;53861;53.422;14.530;2023-11-21T13:21:08;3.89;83.54
66096;SHT31;53861;53.422;14.530;2023-11-21T13:23:43;3.86;83.28
66096;SHT31;53861;53.422;14.530;2023-11-21T13:26:12;3.69;84.36
66096;SHT31;53861;53.422;14.530;2023-11-21T13:28:43;3.86;85.12
66096;SHT31;53861;53.422;14.530;2023-11-21T13:31:14;4.11;86.92
66096;SHT31;53861;53.422;14.530;2023-11-21T13:33:54;3.73;83.82
66096;SHT31;53861;53.422;14.530;2023-11-21T13:36:27;3.46;80.44
66096;SHT31;53861;53.422;14.530;2023-11-21T13:39:00;3.58;83.18
66096;SHT31;53861;53.422;14.530;2023-11-21T13:41:36;3.71;83.20
66096;SHT31;53861;53.422;14.530;2023-11-21T13:44:04;3.75;86.34
66096;SHT31;53861;53.422;14.530;2023-11-21T13:46:42;3.75;87.20
66096;SHT31;53861;53.422;14.530;2023-11-21T13:49:11;3.39;83.77
66096;SHT31;53861;53.422;14.530;2023-11-21T13:51:40;3.42;84.94
66096;SHT31;53861;53.422;14.530;2023-11-21T13:54:11;3.59;84.35
66096;SHT31;53861;53.422;14.530;2023-11-21T13:56:40;3.66;82.78
66096;SHT31;53861;53.422;14.530;2023-11-21T13:59:16;3.58;84.46
66096;SHT31;53861;53.422;14.530;2023-11-21T14:01:47;3.52;85.71
66096;SHT31;53861;53.422;14.530;2023-11-21T14:04:23;3.52;85.14
66096;SHT31;53861;53.422;14.530;2023-11-21T14:07:08;3.49;84.20
66096;SHT31;53861;53.422;14.530;2023-11-21T14:09:50;3.39;84.14
66096;SHT31;53861;53.422;14.530;2023-11-21T14:12:23;3.27;84.12
66096;SHT31;53861;53.422;14.530;2023-11-21T14:14:52;3.11;82.84
66096;SHT31;53861;53.422;14.530;2023-11-21T14:17:23;3.18;85.88
66096;SHT31;53861;53.422;14.530;2023-11-21T14:19:52;3.18;84.41
66096;SHT31;53861;53.422;14.530;2023-11-21T14:22:26;3.28;85.72
66096;SHT31;53861;53.422;14.530;2023-11-21T14:24:55;3.28;85.65
66096;SHT31;53861;53.422;14.530;2023-11-21T14:27:25;3.29;86.02
66096;SHT31;53861;53.422;14.530;2023-11-21T14:29:55;3.24;83.00
66096;SHT31;53861;53.422;14.530;2023-11-21T14:32:34;3.34;82.82
66096;SHT31;53861;53.422;14.530;2023-11-21T14:35:06;3.39;83.48
66096;SHT31;53861;53.422;14.530;2023-11-21T14:37:35;3.32;81.91
66096;SHT31;53861;53.422;14.530;2023-11-21T14:40:07;3.22;81.75
66096;SHT31;53861;53.422;14.530;2023-11-21T14:42:35;3.14;81.97
66096;SHT31;53861;53.422;14.530;2023-11-21T14:45:08;3.07;81.12
66096;SHT31;53861;53.422;14.530;2023-11-21T14:47:38;3.15;82.75
66096;SHT31;53861;53.422;14.530;2023-11-21T14:50:18;3.05;83.26
66096;SHT31;53861;53.422;14.530;2023-11-21T14:53:20;3.08;84.18
66096;SHT31;53861;53.422;14.530;2023-11-21T14:56:13;2.98;85.64
66096;SHT31;53861;53.422;14.530;2023-11-21T14:58:49;3.03;84.84
66096;SHT31;53861;53.422;14.530;2023-11-21T15:01:20;3.03;84.84
66096;SHT31;53861;53.422;14.530;2023-11-21T15:04:08;3.04;85.19
66096;SHT31;53861;53.422;14.530;2023-11-21T15:06:47;3.05;86.22
66096;SHT31;53861;53.422;14.530;2023-11-21T15:09:14;2.94;85.02
66096;SHT31;53861;53.422;14.530;2023-11-21T15:12:04;2.94;85.32
66096;SHT31;53861;53.422;14.530;2023-11-21T15:14:45;2.98;85.35
66096;SHT31;53861;53.422;14.530;2023-11-21T15:17:15;2.98;88.60
66096;SHT31;53861;53.422;14.530;2023-11-21T15:19:56;3.01;86.60
66096;SHT31;53861;53.422;14.530;2023-11-21T15:22:28;2.93;85.38
66096;SHT31;53861;53.422;14.530;2023-11-21T15:24:55;3.04;85.42
66096;SHT31;53861;53.422;14.530;2023-11-21T15:27:27;3.05;86.17
66096;SHT31;53861;53.422;14.530;2023-11-21T15:29:55;3.00;86.91
66096;SHT31;53861;53.422;14.530;2023-11-21T15:32:22;3.05;86.12
66096;SHT31;53861;53.422;14.530;2023-11-21T15:34:55;3.04;85.12
66096;SHT31;53861;53.422;14.530;2023-11-21T15:37:27;2.91;85.70
66096;SHT31;53861;53.422;14.530;2023-11-21T15:39:56;2.83;86.00
66096;SHT31;53861;53.422;14.530;2023-11-21T15:42:32;2.84;88.98
66096;SHT31;53861;53.422;14.530;2023-11-21T15:45:04;2.87;88.97
66096;SHT31;53861;53.422;14.530;2023-11-21T15:47:34;2.75;86.27
66096;SHT31;53861;53.422;14.530;2023-11-21T15:50:05;2.86;87.43
66096;SHT31;53861;53.422;14.530;2023-11-21T15:52:36;2.83;87.73
66096;SHT31;53861;53.422;14.530;2023-11-21T15:55:08;2.75;87.31
66096;SHT31;53861;53.422;14.530;2023-11-21T15:57:40;2.76;87.04